createdAt,value
2018-08-13T00:00:20.448Z,3.23
2018-08-13T00:01:24.651Z,3.30
2018-08-13T00:02:28.779Z,3.30
2018-08-13T00:03:33.061Z,3.23
2018-08-13T00:04:37.254Z,3.12
2018-08-13T00:05:41.422Z,3.80
2018-08-13T00:06:45.583Z,3.20
2018-08-13T00:07:49.843Z,3.30
2018-08-13T00:08:53.998Z,3.93
2018-08-13T00:10:02.294Z,2.73
2018-08-13T00:11:06.459Z,3.30
2018-08-13T00:12:12.010Z,2.90
2018-08-13T00:13:16.190Z,3.20
2018-08-13T00:14:20.342Z,2.93
2018-08-13T00:15:24.949Z,2.77
2018-08-13T00:16:29.064Z,3.10
2018-08-13T00:17:33.292Z,3.27
2018-08-13T00:18:37.565Z,3.50
2018-08-13T00:19:41.709Z,3.53
2018-08-13T00:20:45.872Z,3.00
2018-08-13T00:21:50.051Z,3.20
2018-08-13T00:22:54.219Z,3.97
2018-08-13T00:23:58.395Z,3.40
2018-08-13T00:25:02.796Z,3.40
2018-08-13T00:26:07.206Z,3.30
2018-08-13T00:27:11.353Z,2.98
2018-08-13T00:28:15.566Z,2.87
2018-08-13T00:29:19.777Z,4.03
2018-08-13T00:30:25.359Z,3.05
2018-08-13T00:31:29.462Z,3.20
2018-08-13T00:32:33.665Z,3.23
2018-08-13T00:33:37.858Z,2.80
2018-08-13T00:34:42.006Z,3.00
2018-08-13T00:35:46.178Z,3.10
2018-08-13T00:36:50.327Z,3.03
2018-08-13T00:37:54.494Z,2.75
2018-08-13T00:38:58.670Z,3.30
2018-08-13T00:40:02.866Z,3.52
2018-08-13T00:41:07.043Z,2.60
2018-08-13T00:42:11.212Z,2.95
2018-08-13T00:43:15.412Z,3.00
2018-08-13T00:44:19.823Z,3.30
2018-08-13T00:45:23.986Z,3.12
2018-08-13T00:46:28.174Z,3.10
2018-08-13T00:47:32.349Z,3.27
2018-08-13T00:48:36.499Z,3.33
2018-08-13T00:49:40.794Z,3.83
2018-08-13T00:50:44.917Z,3.02
2018-08-13T00:51:49.077Z,3.53
2018-08-13T00:52:53.232Z,3.10
2018-08-13T00:53:58.486Z,2.75
2018-08-13T00:55:02.704Z,3.27
2018-08-13T00:56:06.822Z,3.37
2018-08-13T00:57:11.612Z,3.20
2018-08-13T00:58:15.791Z,3.00
2018-08-13T00:59:19.939Z,2.90
2018-08-13T01:00:24.153Z,3.27
2018-08-13T01:01:28.297Z,3.58
2018-08-13T01:02:32.445Z,3.00
2018-08-13T01:03:36.683Z,3.00
2018-08-13T01:04:40.839Z,3.27
2018-08-13T01:05:45.049Z,2.80
2018-08-13T01:06:49.357Z,3.10
2018-08-13T01:07:53.665Z,2.70
2018-08-13T01:08:57.846Z,3.33
2018-08-13T01:10:02.019Z,2.70
2018-08-13T01:11:06.293Z,3.33
2018-08-13T01:12:10.442Z,4.17
2018-08-13T01:13:14.794Z,2.80
2018-08-13T01:14:18.990Z,3.08
2018-08-13T01:15:23.165Z,3.02
2018-08-13T01:16:27.571Z,2.90
2018-08-13T01:17:31.737Z,2.80
2018-08-13T01:18:35.939Z,2.85
2018-08-13T01:19:40.098Z,2.53
2018-08-13T01:20:44.293Z,2.80
2018-08-13T01:21:48.640Z,2.42
2018-08-13T01:22:52.809Z,2.90
2018-08-13T01:23:57.014Z,2.80
2018-08-13T01:25:01.198Z,3.08
2018-08-13T01:26:05.717Z,2.72
2018-08-13T01:27:14.303Z,3.30
2018-08-13T01:28:18.488Z,3.10
2018-08-13T01:29:22.889Z,2.80
2018-08-13T01:30:27.102Z,2.67
2018-08-13T01:31:31.314Z,3.25
2018-08-13T01:32:35.607Z,2.72
2018-08-13T01:33:39.770Z,2.40
2018-08-13T01:34:43.922Z,2.30
2018-08-13T01:35:48.123Z,2.47
2018-08-13T01:36:52.325Z,2.35
2018-08-13T01:37:56.522Z,2.72
2018-08-13T01:39:00.722Z,2.25
2018-08-13T01:40:07.089Z,2.98
2018-08-13T01:41:11.222Z,3.62
2018-08-13T01:42:15.402Z,3.25
2018-08-13T01:43:19.708Z,2.60
2018-08-13T01:44:23.858Z,2.85
2018-08-13T01:45:28.117Z,3.12
2018-08-13T01:46:32.279Z,3.58
2018-08-13T01:47:36.586Z,2.52
2018-08-13T01:48:40.810Z,3.33
2018-08-13T01:49:45.199Z,2.62
2018-08-13T01:50:49.575Z,2.80
2018-08-13T01:51:53.783Z,3.00
2018-08-13T01:52:57.998Z,3.10
2018-08-13T01:54:02.372Z,3.77
2018-08-13T01:55:08.085Z,2.80
2018-08-13T01:56:12.278Z,2.72
2018-08-13T01:57:16.461Z,3.25
2018-08-13T01:58:20.659Z,2.98
2018-08-13T01:59:24.906Z,2.62
2018-08-13T02:00:29.073Z,3.00
2018-08-13T02:01:33.346Z,3.50
2018-08-13T02:02:37.462Z,2.45
2018-08-13T02:03:41.639Z,2.80
2018-08-13T02:04:45.986Z,3.33
2018-08-13T02:05:50.210Z,2.80
2018-08-13T02:06:54.383Z,2.60
2018-08-13T02:07:58.591Z,3.20
2018-08-13T02:09:02.984Z,2.70
2018-08-13T02:10:08.898Z,2.83
2018-08-13T02:11:13.092Z,2.80
2018-08-13T02:12:17.443Z,2.37
2018-08-13T02:13:21.647Z,3.00
2018-08-13T02:14:25.911Z,2.72
2018-08-13T02:15:30.172Z,2.40
2018-08-13T02:16:34.725Z,2.43
2018-08-13T02:17:38.907Z,2.60
2018-08-13T02:18:43.079Z,2.87
2018-08-13T02:19:47.227Z,3.20
2018-08-13T02:20:51.538Z,3.00
2018-08-13T02:21:56.111Z,4.00
2018-08-13T02:23:00.262Z,4.07
2018-08-13T02:24:04.623Z,7.20
2018-08-13T02:25:09.206Z,10.32
2018-08-13T02:26:13.453Z,12.45
2018-08-13T02:27:17.749Z,11.97
2018-08-13T02:28:21.920Z,10.60
2018-08-13T02:29:26.807Z,4.80
2018-08-13T02:30:31.259Z,2.98
2018-08-13T02:31:35.430Z,3.08
2018-08-13T02:32:39.871Z,4.80
2018-08-13T02:33:44.311Z,3.43
2018-08-13T02:34:48.481Z,4.60
2018-08-13T02:35:52.642Z,2.60
2018-08-13T02:36:56.910Z,2.50
2018-08-13T02:38:01.055Z,2.80
2018-08-13T02:39:07.441Z,2.20
2018-08-13T02:40:11.547Z,2.90
2018-08-13T02:41:15.863Z,2.93
2018-08-13T02:42:20.205Z,2.30
2018-08-13T02:43:24.319Z,2.75
2018-08-13T02:44:28.512Z,2.95
2018-08-13T02:45:32.660Z,2.37
2018-08-13T02:46:36.866Z,2.47
2018-08-13T02:47:41.058Z,2.55
2018-08-13T02:48:45.234Z,2.70
2018-08-13T02:49:49.435Z,2.58
2018-08-13T02:50:53.590Z,2.65
2018-08-13T02:51:57.787Z,2.40
2018-08-13T02:53:02.111Z,2.27
2018-08-13T02:54:06.990Z,2.72
2018-08-13T02:55:11.852Z,2.80
2018-08-13T02:56:16.032Z,2.90
2018-08-13T02:57:20.284Z,2.75
2018-08-13T02:58:24.494Z,2.58
2018-08-13T02:59:28.633Z,2.90
2018-08-13T03:00:32.784Z,2.45
2018-08-13T03:01:37.339Z,2.75
2018-08-13T03:02:41.655Z,2.70
2018-08-13T03:03:45.834Z,2.20
2018-08-13T03:04:50.106Z,2.35
2018-08-13T03:05:54.153Z,3.05
2018-08-13T03:06:58.326Z,2.85
2018-08-13T03:08:02.487Z,2.22
2018-08-13T03:09:09.351Z,2.30
2018-08-13T03:10:14.007Z,2.63
2018-08-13T03:11:18.249Z,2.40
2018-08-13T03:12:22.378Z,2.60
2018-08-13T03:13:26.534Z,2.50
2018-08-13T03:14:30.737Z,2.60
2018-08-13T03:15:34.974Z,2.77
2018-08-13T03:16:39.544Z,2.60
2018-08-13T03:17:43.745Z,2.50
2018-08-13T03:18:47.919Z,2.70
2018-08-13T03:19:52.103Z,2.90
2018-08-13T03:20:56.250Z,2.37
2018-08-13T03:22:00.470Z,2.70
2018-08-13T03:23:04.642Z,2.90
2018-08-13T03:24:08.871Z,2.33
2018-08-13T03:25:13.125Z,2.53
2018-08-13T03:26:17.333Z,2.33
2018-08-13T03:27:21.538Z,2.90
2018-08-13T03:28:25.972Z,2.23
2018-08-13T03:29:30.348Z,2.80
2018-08-13T03:30:34.506Z,3.75
2018-08-13T03:31:38.683Z,2.55
2018-08-13T03:32:42.983Z,2.95
2018-08-13T03:33:47.061Z,2.30
2018-08-13T03:34:51.202Z,3.33
2018-08-13T03:35:55.426Z,2.47
2018-08-13T03:36:59.622Z,3.30
2018-08-13T03:38:03.794Z,2.80
2018-08-13T03:39:10.553Z,3.30
2018-08-13T03:40:14.681Z,3.40
2018-08-13T03:41:18.890Z,3.70
2018-08-13T03:42:23.047Z,3.17
2018-08-13T03:43:27.271Z,3.27
2018-08-13T03:44:31.402Z,2.77
2018-08-13T03:45:35.545Z,3.33
2018-08-13T03:46:39.880Z,3.20
2018-08-13T03:47:44.093Z,3.23
2018-08-13T03:48:48.233Z,3.70
2018-08-13T03:49:52.399Z,3.40
2018-08-13T03:50:56.561Z,3.10
2018-08-13T03:52:00.722Z,3.08
2018-08-13T03:53:05.340Z,2.70
2018-08-13T03:54:09.527Z,3.27
2018-08-13T03:55:13.670Z,2.90
2018-08-13T03:56:17.855Z,2.55
2018-08-13T03:57:22.591Z,2.98
2018-08-13T03:58:26.746Z,2.80
2018-08-13T03:59:30.913Z,2.97
2018-08-13T04:00:35.078Z,2.80
2018-08-13T04:01:39.826Z,3.10
2018-08-13T04:02:44.177Z,2.70
2018-08-13T04:03:48.334Z,3.03
2018-08-13T04:04:52.479Z,2.83
2018-08-13T04:05:56.678Z,4.62
2018-08-13T04:07:00.879Z,2.60
2018-08-13T04:08:05.405Z,3.03
2018-08-13T04:09:09.994Z,3.47
2018-08-13T04:10:14.449Z,2.90
2018-08-13T04:11:18.595Z,2.95
2018-08-13T04:12:22.750Z,2.80
2018-08-13T04:13:26.930Z,2.60
2018-08-13T04:14:31.074Z,3.50
2018-08-13T04:15:35.225Z,3.50
2018-08-13T04:16:39.840Z,5.58
2018-08-13T04:17:44.961Z,2.98
2018-08-13T04:18:49.615Z,3.65
2018-08-13T04:19:53.933Z,3.80
2018-08-13T04:20:58.066Z,3.85
2018-08-13T04:22:02.815Z,3.08
2018-08-13T04:23:07.061Z,3.57
2018-08-13T04:24:11.202Z,5.63
2018-08-13T04:25:15.344Z,3.00
2018-08-13T04:26:19.515Z,3.47
2018-08-13T04:27:23.790Z,3.37
2018-08-13T04:28:27.959Z,3.50
2018-08-13T04:29:32.119Z,3.40
2018-08-13T04:30:36.291Z,3.92
2018-08-13T04:31:40.498Z,3.27
2018-08-13T04:32:45.629Z,3.40
2018-08-13T04:33:49.735Z,3.13
2018-08-13T04:34:53.931Z,3.45
2018-08-13T04:35:58.076Z,3.83
2018-08-13T04:37:02.259Z,3.17
2018-08-13T04:38:06.447Z,4.15
2018-08-13T04:39:13.518Z,3.70
2018-08-13T04:40:18.644Z,4.08
2018-08-13T04:41:22.981Z,3.47
2018-08-13T04:42:27.164Z,3.63
2018-08-13T04:43:31.312Z,3.75
2018-08-13T04:44:35.433Z,4.00
2018-08-13T04:45:39.618Z,3.50
2018-08-13T04:46:44.171Z,3.10
2018-08-13T04:47:50.455Z,3.10
2018-08-13T04:48:54.606Z,3.47
2018-08-13T04:49:58.771Z,3.60
2018-08-13T04:51:02.951Z,4.72
2018-08-13T04:52:07.258Z,4.70
2018-08-13T04:53:17.913Z,3.90
2018-08-13T04:54:22.251Z,4.33
2018-08-13T04:55:26.551Z,4.35
2018-08-13T04:56:31.054Z,3.80
2018-08-13T04:57:35.378Z,4.10
2018-08-13T04:58:39.559Z,4.30
2018-08-13T04:59:43.806Z,4.03
2018-08-13T05:00:48.023Z,4.17
2018-08-13T05:01:52.190Z,4.25
2018-08-13T05:02:56.357Z,4.55
2018-08-13T05:04:00.580Z,3.62
2018-08-13T05:05:06.178Z,4.50
2018-08-13T05:06:10.325Z,5.10
2018-08-13T05:07:14.595Z,4.22
2018-08-13T05:08:18.769Z,4.37
2018-08-13T05:09:22.911Z,4.60
2018-08-13T05:10:27.095Z,4.70
2018-08-13T05:11:31.346Z,4.55
2018-08-13T05:12:35.502Z,4.20
2018-08-13T05:13:39.665Z,5.58
2018-08-13T05:14:43.802Z,5.08
2018-08-13T05:15:47.966Z,6.20
2018-08-13T05:16:52.388Z,5.37
2018-08-13T05:17:56.678Z,5.37
2018-08-13T05:19:01.022Z,5.65
2018-08-13T05:20:05.806Z,4.28
2018-08-13T05:21:09.994Z,4.80
2018-08-13T05:22:14.216Z,4.67
2018-08-13T05:23:18.528Z,4.60
2018-08-13T05:24:22.670Z,4.65
2018-08-13T05:25:26.852Z,5.33
2018-08-13T05:26:31.054Z,5.03
2018-08-13T05:27:35.454Z,4.65
2018-08-13T05:28:39.651Z,4.83
2018-08-13T05:29:43.826Z,4.85
2018-08-13T05:30:47.972Z,4.87
2018-08-13T05:31:52.164Z,4.62
2018-08-13T05:32:56.371Z,4.45
2018-08-13T05:34:00.577Z,4.30
2018-08-13T05:35:05.509Z,4.08
2018-08-13T05:36:09.734Z,4.20
2018-08-13T05:37:13.909Z,4.20
2018-08-13T05:38:18.358Z,5.60
2018-08-13T05:39:22.447Z,3.72
2018-08-13T05:40:26.662Z,5.35
2018-08-13T05:41:30.849Z,3.33
2018-08-13T05:42:35.050Z,4.90
2018-08-13T05:43:39.383Z,4.53
2018-08-13T05:44:43.710Z,4.28
2018-08-13T05:45:47.961Z,4.90
2018-08-13T05:46:52.098Z,4.05
2018-08-13T05:47:56.289Z,4.20
2018-08-13T05:49:00.677Z,5.03
2018-08-13T05:50:06.427Z,5.20
2018-08-13T05:51:10.618Z,4.85
2018-08-13T05:52:14.786Z,4.78
2018-08-13T05:53:19.136Z,4.50
2018-08-13T05:54:23.314Z,5.30
2018-08-13T05:55:27.678Z,5.45
2018-08-13T05:56:32.019Z,4.65
2018-08-13T05:57:36.224Z,4.60
2018-08-13T05:58:40.447Z,4.92
2018-08-13T05:59:44.654Z,4.50
2018-08-13T06:00:48.858Z,4.53
2018-08-13T06:01:53.054Z,6.00
2018-08-13T06:02:57.529Z,4.55
2018-08-13T06:04:01.676Z,5.05
2018-08-13T06:05:05.911Z,4.42
2018-08-13T06:06:10.109Z,4.45
2018-08-13T06:07:14.305Z,5.10
2018-08-13T06:08:18.622Z,5.53
2018-08-13T06:09:22.806Z,5.15
2018-08-13T06:10:26.966Z,5.12
2018-08-13T06:12:41.855Z,5.17
2018-08-13T06:13:46.202Z,4.28
2018-08-13T06:14:50.382Z,4.35
2018-08-13T06:15:54.612Z,4.42
2018-08-13T06:16:59.124Z,5.08
2018-08-13T06:18:03.413Z,5.17
2018-08-13T06:19:07.682Z,5.50
2018-08-13T06:20:12.880Z,5.12
2018-08-13T06:21:17.038Z,5.10
2018-08-13T06:22:21.387Z,5.70
2018-08-13T06:23:25.531Z,5.47
2018-08-13T06:24:29.698Z,5.10
2018-08-13T06:25:33.935Z,6.10
2018-08-13T06:26:38.266Z,6.75
2018-08-13T06:27:43.513Z,5.58
2018-08-13T06:28:48.315Z,6.15
2018-08-13T06:29:52.595Z,5.87
2018-08-13T06:30:56.760Z,5.40
2018-08-13T06:32:01.262Z,6.00
2018-08-13T06:33:05.837Z,7.12
2018-08-13T06:34:10.011Z,5.55
2018-08-13T06:35:14.666Z,5.62
2018-08-13T06:36:18.952Z,5.20
2018-08-13T06:37:23.096Z,5.60
2018-08-13T06:38:27.425Z,5.65
2018-08-13T06:39:31.737Z,7.00
2018-08-13T06:40:35.898Z,5.62
2018-08-13T06:41:40.082Z,5.15
2018-08-13T06:42:44.450Z,5.78
2018-08-13T06:43:48.630Z,6.35
2018-08-13T06:44:52.798Z,6.25
2018-08-13T06:45:56.982Z,6.65
2018-08-13T06:47:01.173Z,6.17
2018-08-13T06:48:05.680Z,7.10
2018-08-13T06:49:09.887Z,5.75
2018-08-13T06:50:14.729Z,6.30
2018-08-13T06:51:19.123Z,6.15
2018-08-13T06:52:23.268Z,6.70
2018-08-13T06:53:27.434Z,6.80
2018-08-13T06:54:31.655Z,7.05
2018-08-13T06:55:35.806Z,6.15
2018-08-13T06:56:39.960Z,6.53
2018-08-13T06:57:44.101Z,7.47
2018-08-13T06:58:48.259Z,7.50
2018-08-13T06:59:52.430Z,6.25
2018-08-13T07:00:56.594Z,6.92
2018-08-13T07:02:00.788Z,6.53
2018-08-13T07:03:07.059Z,6.97
2018-08-13T07:04:11.407Z,6.70
2018-08-13T07:05:17.996Z,6.50
2018-08-13T07:06:22.420Z,5.78
2018-08-13T07:07:26.563Z,7.60
2018-08-13T07:08:30.775Z,6.20
2018-08-13T07:09:34.934Z,5.58
2018-08-13T07:10:39.162Z,5.08
2018-08-13T07:11:43.420Z,4.67
2018-08-13T07:12:47.786Z,5.50
2018-08-13T07:13:51.973Z,5.35
2018-08-13T07:14:56.126Z,5.05
2018-08-13T07:16:00.311Z,5.22
2018-08-13T07:17:04.611Z,5.60
2018-08-13T07:18:08.786Z,5.50
2018-08-13T07:19:12.970Z,6.15
2018-08-13T07:20:17.946Z,5.83
2018-08-13T07:21:22.115Z,5.87
2018-08-13T07:22:26.324Z,6.15
2018-08-13T07:23:30.440Z,5.45
2018-08-13T07:24:34.782Z,6.00
2018-08-13T07:25:39.132Z,5.83
2018-08-13T07:26:43.417Z,5.62
2018-08-13T07:27:47.732Z,4.75
2018-08-13T07:28:51.837Z,5.45
2018-08-13T07:29:55.966Z,5.35
2018-08-13T07:31:00.103Z,5.17
2018-08-13T07:32:04.337Z,5.33
2018-08-13T07:33:08.544Z,5.47
2018-08-13T07:34:13.020Z,6.50
2018-08-13T07:35:17.163Z,5.60
2018-08-13T07:36:21.365Z,5.67
2018-08-13T07:37:25.530Z,5.62
2018-08-13T07:38:29.781Z,5.67
2018-08-13T07:39:33.979Z,5.75
2018-08-13T07:40:38.110Z,6.30
2018-08-13T07:41:42.266Z,6.55
2018-08-13T07:42:46.900Z,6.47
2018-08-13T07:43:51.042Z,6.75
2018-08-13T07:44:55.474Z,7.17
2018-08-13T07:45:59.626Z,7.00
2018-08-13T07:47:03.802Z,6.83
2018-08-13T07:48:08.018Z,7.17
2018-08-13T07:49:12.158Z,7.72
2018-08-13T07:50:16.705Z,6.80
2018-08-13T07:51:20.988Z,7.45
2018-08-13T07:52:25.157Z,7.42
2018-08-13T07:53:29.363Z,7.00
2018-08-13T07:54:33.974Z,7.05
2018-08-13T07:55:38.158Z,6.60
2018-08-13T07:56:42.316Z,7.65
2018-08-13T07:57:46.474Z,6.90
2018-08-13T07:58:50.694Z,6.30
2018-08-13T07:59:54.917Z,7.03
2018-08-13T08:00:59.162Z,7.65
2018-08-13T08:02:03.411Z,6.42
2018-08-13T08:03:07.598Z,6.85
2018-08-13T08:04:11.822Z,5.97
2018-08-13T08:05:16.506Z,5.78
2018-08-13T08:06:20.646Z,5.25
2018-08-13T08:07:24.847Z,5.35
2018-08-13T08:08:29.064Z,5.45
2018-08-13T08:09:33.360Z,6.05
2018-08-13T08:10:37.668Z,5.10
2018-08-13T08:11:42.050Z,5.10
2018-08-13T08:12:46.246Z,4.80
2018-08-13T08:13:50.868Z,4.92
2018-08-13T08:14:55.026Z,5.92
2018-08-13T08:15:59.221Z,6.80
2018-08-13T08:17:03.437Z,4.50
2018-08-13T08:18:08.094Z,4.17
2018-08-13T08:19:12.234Z,4.65
2018-08-13T08:20:16.506Z,5.42
2018-08-13T08:21:20.732Z,5.15
2018-08-13T08:22:24.808Z,4.78
2018-08-13T08:23:28.962Z,4.83
2018-08-13T08:24:33.110Z,4.08
2018-08-13T08:25:37.296Z,5.00
2018-08-13T08:26:41.434Z,4.62
2018-08-13T08:27:45.837Z,5.30
2018-08-13T08:28:50.033Z,5.78
2018-08-13T08:29:54.459Z,5.30
2018-08-13T08:30:58.672Z,4.70
2018-08-13T08:32:02.919Z,4.92
2018-08-13T08:33:07.410Z,4.83
2018-08-13T08:34:12.202Z,5.40
2018-08-13T08:35:17.458Z,4.50
2018-08-13T08:36:21.671Z,4.60
2018-08-13T08:37:25.874Z,4.95
2018-08-13T08:38:30.063Z,4.70
2018-08-13T08:39:34.423Z,5.60
2018-08-13T08:40:38.709Z,4.83
2018-08-13T08:41:43.404Z,4.90
2018-08-13T08:42:48.088Z,5.50
2018-08-13T08:43:52.276Z,4.40
2018-08-13T08:44:56.459Z,5.30
2018-08-13T08:46:00.849Z,4.83
2018-08-13T08:47:05.058Z,5.62
2018-08-13T08:48:09.794Z,4.80
2018-08-13T08:49:13.994Z,5.55
2018-08-13T08:50:18.186Z,4.70
2018-08-13T08:51:22.583Z,5.28
2018-08-13T08:52:26.790Z,5.28
2018-08-13T08:53:30.997Z,5.05
2018-08-13T08:54:35.134Z,6.30
2018-08-13T08:55:39.290Z,5.25
2018-08-13T08:56:43.522Z,5.75
2018-08-13T08:57:48.835Z,5.70
2018-08-13T08:58:53.144Z,5.40
2018-08-13T08:59:57.289Z,4.90
2018-08-13T09:01:01.459Z,5.78
2018-08-13T09:02:05.626Z,4.45
2018-08-13T09:03:09.820Z,5.35
2018-08-13T09:04:14.113Z,4.95
2018-08-13T09:05:18.264Z,5.53
2018-08-13T09:06:22.478Z,5.25
2018-08-13T09:07:26.822Z,5.80
2018-08-13T09:08:31.038Z,5.90
2018-08-13T09:09:35.203Z,5.12
2018-08-13T09:10:39.346Z,5.78
2018-08-13T09:11:43.507Z,4.87
2018-08-13T09:12:47.709Z,5.50
2018-08-13T09:13:51.859Z,5.40
2018-08-13T09:14:56.032Z,6.70
2018-08-13T09:16:00.181Z,6.33
2018-08-13T09:17:04.382Z,6.87
2018-08-13T09:18:20.055Z,6.80
2018-08-13T09:19:35.400Z,7.33
2018-08-13T09:20:50.760Z,6.97
2018-08-13T09:24:09.081Z,6.70
2018-08-13T09:25:24.682Z,6.53
2018-08-13T09:26:40.275Z,7.70
2018-08-13T09:27:55.765Z,6.85
2018-08-13T09:29:11.245Z,7.42
2018-08-13T09:30:26.922Z,7.05
2018-08-13T09:31:56.233Z,7.95
2018-08-13T09:33:12.009Z,6.90
2018-08-13T09:34:27.374Z,7.25
2018-08-13T09:35:34.230Z,7.55
2018-08-13T09:36:38.612Z,6.80
2018-08-13T09:37:42.803Z,7.50
2018-08-13T09:38:47.063Z,6.83
2018-08-13T09:39:51.260Z,7.20
2018-08-13T09:40:55.378Z,6.90
2018-08-13T09:41:59.575Z,6.78
2018-08-13T09:43:03.718Z,7.07
2018-08-13T09:44:07.883Z,6.87
2018-08-13T09:45:12.032Z,6.30
2018-08-13T09:46:16.212Z,6.75
2018-08-13T09:47:20.487Z,6.47
2018-08-13T09:48:24.704Z,7.40
2018-08-13T09:49:28.986Z,7.20
2018-08-13T09:50:33.155Z,6.70
2018-08-13T09:51:37.326Z,6.97
2018-08-13T09:52:42.035Z,6.55
2018-08-13T09:53:46.194Z,6.87
2018-08-13T09:54:53.394Z,6.78
2018-08-13T09:55:57.534Z,7.43
2018-08-13T09:57:01.699Z,6.50
2018-08-13T09:58:06.611Z,5.90
2018-08-13T09:59:11.006Z,7.28
2018-08-13T10:00:22.453Z,5.92
2018-08-13T10:01:26.623Z,7.13
2018-08-13T10:02:30.839Z,5.90
2018-08-13T10:03:35.037Z,6.70
2018-08-13T10:04:39.226Z,5.97
2018-08-13T10:05:43.385Z,6.23
2018-08-13T10:06:47.551Z,6.53
2018-08-13T10:07:51.719Z,6.23
2018-08-13T10:08:55.878Z,6.08
2018-08-13T10:10:00.074Z,5.50
2018-08-13T10:11:04.277Z,6.08
2018-08-13T10:12:08.409Z,6.07
2018-08-13T10:13:12.595Z,6.50
2018-08-13T10:14:16.827Z,5.93
2018-08-13T10:15:20.997Z,6.30
2018-08-13T10:16:25.151Z,6.27
2018-08-13T10:17:29.363Z,5.70
2018-08-13T10:18:34.018Z,7.00
2018-08-13T10:19:38.178Z,6.90
2018-08-13T10:20:42.429Z,5.93
2018-08-13T10:21:46.690Z,6.47
2018-08-13T10:22:50.866Z,5.80
2018-08-13T10:23:55.063Z,6.20
2018-08-13T10:24:59.249Z,6.63
2018-08-13T10:26:03.409Z,5.92
2018-08-13T10:27:07.649Z,5.97
2018-08-13T10:28:11.766Z,5.77
2018-08-13T10:29:15.967Z,5.77
2018-08-13T10:30:20.138Z,6.62
2018-08-13T10:31:24.287Z,5.80
2018-08-13T10:32:28.531Z,5.93
2018-08-13T10:33:32.726Z,6.17
2018-08-13T10:34:37.200Z,6.10
2018-08-13T10:35:41.543Z,5.80
2018-08-13T10:36:45.694Z,5.93
2018-08-13T10:37:49.842Z,5.47
2018-08-13T10:38:54.225Z,6.17
2018-08-13T10:39:58.406Z,5.37
2018-08-13T10:41:02.587Z,5.60
2018-08-13T10:42:07.000Z,5.60
2018-08-13T10:43:11.154Z,4.80
2018-08-13T10:44:15.302Z,5.13
2018-08-13T10:45:19.660Z,5.40
2018-08-13T10:46:23.864Z,5.10
2018-08-13T10:47:27.992Z,4.90
2018-08-13T10:48:32.173Z,5.20
2018-08-13T10:49:36.305Z,4.70
2018-08-13T10:50:40.480Z,5.30
2018-08-13T10:51:44.686Z,7.47
2018-08-13T10:52:48.831Z,10.13
2018-08-13T10:53:53.198Z,5.50
2018-08-13T10:54:57.305Z,4.30
2018-08-13T10:56:01.667Z,4.87
2018-08-13T10:57:05.943Z,4.93
2018-08-13T10:58:10.121Z,4.90
2018-08-13T10:59:14.451Z,4.80
2018-08-13T11:00:18.740Z,4.93
2018-08-13T11:01:23.155Z,4.97
2018-08-13T11:02:27.320Z,5.40
2018-08-13T11:03:31.488Z,4.40
2018-08-13T11:04:35.642Z,6.20
2018-08-13T11:05:39.834Z,5.17
2018-08-13T11:06:44.010Z,4.70
2018-08-13T11:07:48.378Z,4.57
2018-08-13T11:08:52.687Z,5.37
2018-08-13T11:09:57.010Z,5.07
2018-08-13T11:11:01.230Z,4.57
2018-08-13T11:12:05.527Z,4.30
2018-08-13T11:13:09.714Z,4.60
2018-08-13T11:14:13.921Z,4.70
2018-08-13T11:15:19.512Z,4.10
2018-08-13T11:16:23.794Z,4.63
2018-08-13T11:17:28.005Z,5.13
2018-08-13T11:18:33.268Z,4.57
2018-08-13T11:19:37.654Z,4.07
2018-08-13T11:20:41.970Z,4.93
2018-08-13T11:21:46.151Z,4.00
2018-08-13T11:22:50.450Z,4.57
2018-08-13T11:23:54.636Z,3.80
2018-08-13T11:24:58.790Z,4.20
2018-08-13T11:26:02.935Z,4.70
2018-08-13T11:27:12.035Z,4.13
2018-08-13T11:28:16.469Z,4.10
2018-08-13T11:29:20.642Z,4.37
2018-08-13T11:30:24.876Z,4.90
2018-08-13T11:31:29.006Z,4.87
2018-08-13T11:32:33.267Z,5.27
2018-08-13T11:33:37.443Z,5.00
2018-08-13T11:34:42.433Z,5.63
2018-08-13T11:35:46.535Z,4.47
2018-08-13T11:36:50.695Z,4.53
2018-08-13T11:37:54.914Z,4.60
2018-08-13T11:38:59.122Z,4.60
2018-08-13T11:40:03.690Z,5.10
2018-08-13T11:41:08.022Z,4.60
2018-08-13T11:42:12.181Z,4.87
2018-08-13T11:43:16.372Z,5.03
2018-08-13T11:44:20.514Z,5.13
2018-08-13T11:45:24.669Z,5.17
2018-08-13T11:46:28.899Z,4.20
2018-08-13T11:47:33.142Z,4.80
2018-08-13T11:48:37.321Z,4.67
2018-08-13T11:49:41.781Z,5.50
2018-08-13T11:50:45.912Z,5.50
2018-08-13T11:51:50.074Z,5.73
2018-08-13T11:52:54.280Z,5.77
2018-08-13T11:53:58.469Z,5.07
2018-08-13T11:55:02.634Z,5.40
2018-08-13T11:56:07.030Z,4.80
2018-08-13T11:57:11.148Z,5.40
2018-08-13T11:58:15.265Z,5.30
2018-08-13T11:59:19.566Z,7.13
2018-08-13T12:00:23.914Z,7.20
2018-08-13T12:01:28.078Z,5.70
2018-08-13T12:02:32.234Z,5.40
2018-08-13T12:03:36.389Z,7.03
2018-08-13T12:04:40.569Z,8.13
2018-08-13T12:05:44.773Z,7.30
2018-08-13T12:06:48.960Z,7.50
2018-08-13T12:07:53.159Z,6.43
2018-08-13T12:08:57.304Z,6.60
2018-08-13T12:10:01.471Z,5.50
2018-08-13T12:11:05.854Z,6.97
2018-08-13T12:12:09.982Z,8.47
2018-08-13T12:13:14.142Z,12.43
2018-08-13T12:14:18.283Z,10.90
2018-08-13T12:15:22.476Z,8.43
2018-08-13T12:16:26.650Z,7.50
2018-08-13T12:17:30.950Z,8.10
2018-08-13T12:18:35.279Z,7.30
2018-08-13T12:19:39.563Z,8.33
2018-08-13T12:20:43.791Z,7.27
2018-08-13T12:21:47.964Z,6.90
2018-08-13T12:22:52.110Z,8.03
2018-08-13T12:23:56.268Z,8.50
2018-08-13T12:25:00.426Z,9.93
2018-08-13T12:26:04.650Z,7.28
2018-08-13T12:27:08.827Z,6.87
2018-08-13T12:28:13.007Z,8.53
2018-08-13T12:29:17.186Z,8.50
2018-08-13T12:30:21.391Z,8.07
2018-08-13T12:31:25.633Z,7.92
2018-08-13T12:32:30.047Z,6.65
2018-08-13T12:33:34.224Z,6.07
2018-08-13T12:34:38.415Z,5.77
2018-08-13T12:35:42.619Z,6.93
2018-08-13T12:36:46.748Z,6.30
2018-08-13T12:37:51.473Z,5.83
2018-08-13T12:38:55.623Z,6.22
2018-08-13T12:39:59.949Z,5.20
2018-08-13T12:41:04.294Z,6.03
2018-08-13T12:42:09.811Z,4.85
2018-08-13T12:43:13.945Z,4.03
2018-08-13T12:44:18.067Z,3.67
2018-08-13T12:45:22.248Z,4.33
2018-08-13T12:46:26.503Z,4.50
2018-08-13T12:47:30.720Z,4.60
2018-08-13T12:48:34.882Z,4.77
2018-08-13T12:49:39.118Z,3.60
2018-08-13T12:50:43.275Z,3.17
2018-08-13T12:51:47.487Z,3.50
2018-08-13T12:52:52.522Z,3.23
2018-08-13T12:53:56.696Z,3.80
2018-08-13T12:55:01.007Z,3.70
2018-08-13T12:56:05.182Z,3.65
2018-08-13T12:57:09.404Z,3.67
2018-08-13T12:58:13.491Z,3.57
2018-08-13T12:59:17.834Z,3.30
2018-08-13T13:00:22.002Z,3.07
2018-08-13T13:01:28.023Z,2.87
2018-08-13T13:02:32.178Z,3.43
2018-08-13T13:03:36.311Z,3.00
2018-08-13T13:04:41.223Z,3.40
2018-08-13T13:05:45.589Z,3.50
2018-08-13T13:06:49.703Z,3.03
2018-08-13T13:07:54.002Z,2.80
2018-08-13T13:08:58.138Z,3.40
2018-08-13T13:10:02.300Z,4.03
2018-08-13T13:11:06.486Z,4.10
2018-08-13T13:12:10.953Z,3.37
2018-08-13T13:13:15.094Z,3.43
2018-08-13T13:14:19.267Z,2.73
2018-08-13T13:15:23.542Z,4.07
2018-08-13T13:16:27.740Z,3.93
2018-08-13T13:17:31.902Z,4.00
2018-08-13T13:18:36.258Z,4.50
2018-08-13T13:19:40.562Z,3.40
2018-08-13T13:20:44.764Z,3.57
2018-08-13T13:21:48.899Z,3.30
2018-08-13T13:22:53.054Z,3.33
2018-08-13T13:23:57.230Z,4.40
2018-08-13T13:25:01.402Z,4.13
2018-08-13T13:26:05.632Z,3.73
2018-08-13T13:27:09.803Z,4.03
2018-08-13T13:28:13.955Z,3.77
2018-08-13T13:29:18.304Z,3.90
2018-08-13T13:30:22.486Z,3.73
2018-08-13T13:31:26.766Z,4.80
2018-08-13T13:32:31.098Z,4.30
2018-08-13T13:33:35.258Z,5.10
2018-08-13T13:34:39.560Z,5.93
2018-08-13T13:35:43.650Z,4.20
2018-08-13T13:36:47.822Z,5.60
2018-08-13T13:37:52.188Z,5.10
2018-08-13T13:38:56.359Z,5.00
2018-08-13T13:40:00.529Z,6.50
2018-08-13T13:41:04.691Z,5.37
2018-08-13T13:42:08.965Z,5.13
2018-08-13T13:43:13.245Z,5.90
2018-08-13T13:44:17.439Z,5.10
2018-08-13T13:45:21.662Z,5.70
2018-08-13T13:46:25.962Z,4.93
2018-08-13T13:47:30.127Z,5.47
2018-08-13T13:48:34.303Z,6.70
2018-08-13T13:49:38.494Z,6.33
2018-08-13T13:50:42.623Z,7.63
2018-08-13T13:51:46.943Z,4.93
2018-08-13T13:52:51.269Z,5.33
2018-08-13T13:53:55.432Z,6.10
2018-08-13T13:54:59.741Z,5.17
2018-08-13T13:56:03.885Z,2.50
2018-08-13T13:57:08.030Z,2.60
2018-08-13T13:58:12.231Z,2.33
2018-08-13T13:59:16.363Z,2.40
2018-08-13T14:00:21.746Z,2.00
2018-08-13T14:01:25.894Z,2.30
2018-08-13T14:02:30.362Z,2.17
2018-08-13T14:03:34.538Z,4.33
2018-08-13T14:04:38.712Z,4.37
2018-08-13T14:05:42.870Z,4.30
2018-08-13T14:06:47.021Z,4.17
2018-08-13T14:07:51.159Z,4.20
2018-08-13T14:08:55.636Z,3.92
2018-08-13T14:09:59.807Z,3.77
2018-08-13T14:11:04.103Z,4.10
2018-08-13T14:12:08.290Z,3.53
2018-08-13T14:13:12.501Z,4.30
2018-08-13T14:14:16.764Z,4.03
2018-08-13T14:15:22.101Z,4.15
2018-08-13T14:16:26.247Z,3.98
2018-08-13T14:17:30.435Z,4.30
2018-08-13T14:18:34.651Z,4.50
2018-08-13T14:19:38.978Z,4.42
2018-08-13T14:20:43.226Z,5.08
2018-08-13T14:21:47.354Z,4.97